Time;durP1;ratioP1;P1;durP2;ratioP2;P2;SDS_P1;SDS_P2;PMS_P1;PMS_P2;Temp;Humidity;BMP_temperature;BMP_pressure;BME280_temperature;BME280_humidity;BME280_pressure;Samples;Min_cycle;Max_cycle;Signal;HPM_P1;HPM_P2
2024/04/22 00:01:44;;;;;;;7.67;6.83;;;6.70;1.00;;;;;;5564807;25;20281;-41
2024/04/22 00:04:09;;;;;;;6.33;5.73;;;7.00;1.00;;;;;;5564234;25;20227;-44
2024/04/22 00:06:35;;;;;;;6.17;5.57;;;7.20;99.90;;;;;;5564253;25;20214;-41
2024/04/22 00:09:01;;;;;;;6.60;5.90;;;7.30;99.90;;;;;;5563596;25;20276;-45
2024/04/22 00:11:26;;;;;;;7.40;5.60;;;7.40;99.90;;;;;;5563127;25;20281;-43
2024/04/22 00:13:52;;;;;;;6.73;5.93;;;7.50;80.10;;;;;;5563489;25;20228;-43
2024/04/22 00:16:17;;;;;;;7.30;4.90;;;7.60;20.50;;;;;;5568108;25;20238;-41
2024/04/22 00:18:46;;;;;;;6.63;5.93;;;7.70;1.00;;;;;;5568289;25;20319;-43
2024/04/22 00:21:11;;;;;;;6.40;5.63;;;7.70;1.00;;;;;;5534338;25;20582;-41
2024/04/22 00:23:37;;;;;;;6.00;5.40;;;7.80;1.00;;;;;;5568130;25;20572;-42
2024/04/22 00:26:03;;;;;;;6.03;5.20;;;8.00;1.00;;;;;;5568397;25;20230;-41
2024/04/22 00:28:29;;;;;;;5.53;5.03;;;8.00;1.00;;;;;;5567562;25;20226;-40
2024/04/22 00:30:55;;;;;;;6.60;5.90;;;7.90;1.00;;;;;;5568544;25;20703;-38
2024/04/22 00:33:21;;;;;;;5.80;5.10;;;7.50;1.00;;;;;;5568760;25;20551;-39
2024/04/22 00:35:59;;;;;;;7.03;6.43;;;6.90;99.90;;;;;;5567635;25;20219;-40
2024/04/22 00:38:26;;;;;;;6.73;5.83;;;6.20;1.00;;;;;;5564491;25;20497;-40
2024/04/22 00:40:51;;;;;;;9.73;6.60;;;5.90;1.00;;;;;;5566815;25;20974;-40
2024/04/22 00:43:17;;;;;;;7.93;6.63;;;5.50;63.40;;;;;;5566815;25;20451;-38
2024/04/22 00:45:43;;;;;;;6.97;6.37;;;5.10;99.90;;;;;;5567761;25;20321;-39
2024/04/22 00:48:09;;;;;;;7.73;6.23;;;5.00;1.00;;;;;;5534474;25;20331;-39
2024/04/22 00:50:35;;;;;;;6.93;6.27;;;4.80;1.00;;;;;;5566859;25;20462;-40
2024/04/22 00:53:02;;;;;;;7.93;6.53;;;4.70;1.00;;;;;;5567710;25;20651;-39
2024/04/22 00:55:28;;;;;;;8.57;7.60;;;4.50;11.10;;;;;;5534600;25;20564;-39
2024/04/22 00:57:56;;;;;;;7.43;6.73;;;4.40;5.40;;;;;;5567653;25;20435;-38
2024/04/22 01:00:23;;;;;;;7.87;7.07;;;4.30;28.20;;;;;;5534533;25;20222;-38
2024/04/22 01:02:50;;;;;;;6.60;6.00;;;4.20;99.90;;;;;;5567490;25;20471;-39
2024/04/22 01:05:16;;;;;;;7.20;6.50;;;4.10;99.90;;;;;;5534152;25;20885;-38
2024/04/22 01:07:42;;;;;;;7.40;6.70;;;4.10;99.90;;;;;;5503567;25;20463;-40
2024/04/22 01:10:08;;;;;;;7.43;6.73;;;4.00;99.90;;;;;;5567125;25;20443;-38
2024/04/22 01:12:34;;;;;;;8.67;7.80;;;4.00;99.90;;;;;;5567343;25;20443;-40
2024/04/22 01:14:59;;;;;;;8.60;7.00;;;3.90;99.90;;;;;;5565514;25;20716;-41
2024/04/22 01:17:39;;;;;;;8.13;7.30;;;3.80;99.90;;;;;;5566795;25;20728;-40
2024/04/22 01:20:09;;;;;;;7.60;6.80;;;3.80;99.90;;;;;;5533616;25;20238;-38
2024/04/22 01:22:35;;;;;;;6.60;6.00;;;3.80;99.90;;;;;;5566832;25;20522;-39
2024/04/22 01:25:04;;;;;;;8.33;7.40;;;3.70;99.90;;;;;;5566881;25;20565;-37
2024/04/22 01:27:31;;;;;;;8.67;7.77;;;3.70;99.90;;;;;;5566733;25;20338;-39
2024/04/22 01:30:00;;;;;;;8.03;6.80;;;3.70;99.90;;;;;;5566787;25;20451;-38
2024/04/22 01:32:26;;;;;;;7.23;6.53;;;3.60;99.90;;;;;;5566184;25;20544;-39
2024/04/22 01:34:57;;;;;;;11.00;7.40;;;3.60;99.90;;;;;;5566739;25;20454;-38
2024/04/22 01:37:22;;;;;;;9.77;8.60;;;3.60;99.90;;;;;;5566976;25;20290;-38
2024/04/22 01:39:48;;;;;;;7.10;6.40;;;3.60;99.90;;;;;;5567791;25;20724;-39
2024/04/22 01:42:14;;;;;;;7.70;6.93;;;3.60;99.90;;;;;;5567100;25;20223;-39
2024/04/22 01:44:39;;;;;;;9.20;7.47;;;3.60;99.90;;;;;;5503180;25;20510;-39
2024/04/22 01:47:05;;;;;;;10.00;7.57;;;3.50;99.90;;;;;;5533795;25;20276;-39
2024/04/22 01:49:31;;;;;;;6.07;5.47;;;3.50;1.00;;;;;;5566512;25;20269;-39
2024/04/22 01:51:56;;;;;;;10.20;7.00;;;3.50;1.00;;;;;;5566663;25;20257;-41
2024/04/22 01:54:22;;;;;;;7.80;7.00;;;3.40;1.00;;;;;;5567021;25;20214;-40
2024/04/22 01:56:49;;;;;;;7.90;6.83;;;3.40;1.00;;;;;;5566192;25;20273;-39
2024/04/22 01:59:15;;;;;;;8.40;7.50;;;3.40;1.00;;;;;;5566617;25;20272;-41
2024/04/22 02:01:41;;;;;;;9.07;8.10;;;3.40;1.00;;;;;;5566340;25;20585;-40
2024/04/22 02:04:07;;;;;;;9.33;7.13;;;3.40;1.00;;;;;;5567018;25;20493;-40
2024/04/22 02:06:34;;;;;;;8.57;6.80;;;3.40;1.00;;;;;;5567216;25;20442;-40
2024/04/22 02:08:59;;;;;;;8.53;7.60;;;3.40;1.00;;;;;;5567006;25;20234;-38
2024/04/22 02:11:25;;;;;;;9.07;8.17;;;3.40;1.00;;;;;;5566578;25;20548;-39
2024/04/22 02:17:15;;;;;;;8.70;7.80;;;3.40;1.00;;;;;;5566119;25;20576;-40
2024/04/22 02:19:41;;;;;;;8.87;7.97;;;3.30;1.00;;;;;;5566359;25;20512;-41
2024/04/22 02:22:07;;;;;;;9.03;7.90;;;3.30;1.00;;;;;;5566379;25;20443;-40
2024/04/22 02:24:33;;;;;;;10.10;9.00;;;3.30;1.00;;;;;;5562491;25;20282;-41
2024/04/22 02:27:00;;;;;;;9.20;8.30;;;3.20;1.00;;;;;;5565847;25;20564;-41
2024/04/22 02:29:26;;;;;;;9.67;8.67;;;3.10;1.00;;;;;;5564828;25;20466;-41
2024/04/22 02:31:52;;;;;;;9.03;7.87;;;3.10;1.00;;;;;;5565838;25;20463;-40
2024/04/22 02:34:17;;;;;;;8.67;7.77;;;3.00;1.00;;;;;;5566196;25;20463;-38
2024/04/22 02:36:43;;;;;;;10.90;9.03;;;3.00;1.00;;;;;;5564824;25;20219;-39
2024/04/22 02:39:09;;;;;;;11.60;8.10;;;3.00;1.00;;;;;;5565317;25;20253;-39
2024/04/22 02:41:34;;;;;;;9.97;8.27;;;3.00;1.00;;;;;;5565364;25;20269;-39
2024/04/22 02:44:00;;;;;;;9.63;8.67;;;3.00;1.00;;;;;;5565377;25;20272;-40
2024/04/22 02:46:25;;;;;;;9.90;8.27;;;3.00;1.00;;;;;;5566078;25;20266;-40
2024/04/22 02:48:51;;;;;;;9.20;8.40;;;2.90;1.00;;;;;;5532503;25;20604;-40
2024/04/22 02:51:16;;;;;;;9.53;8.27;;;2.90;1.00;;;;;;5565441;25;20632;-40
2024/04/22 02:53:42;;;;;;;11.27;9.40;;;2.90;1.00;;;;;;5565566;25;20334;-40
2024/04/22 02:56:08;;;;;;;9.53;8.63;;;2.80;1.00;;;;;;5565564;25;20636;-39
2024/04/22 02:58:33;;;;;;;9.67;8.37;;;2.80;1.00;;;;;;5564852;25;20227;-39
2024/04/22 03:00:59;;;;;;;9.07;8.07;;;2.80;1.00;;;;;;5564829;25;20569;-42
2024/04/22 03:03:24;;;;;;;11.60;8.87;;;2.80;1.00;;;;;;5565268;25;20448;-40
2024/04/22 03:05:50;;;;;;;9.30;8.40;;;2.70;1.00;;;;;;5563883;25;20227;-40
2024/04/22 03:08:16;;;;;;;10.90;9.43;;;2.70;1.00;;;;;;5564592;25;20264;-40
2024/04/22 03:10:41;;;;;;;10.47;9.17;;;2.70;1.00;;;;;;5563651;25;20282;-40
2024/04/22 03:13:09;;;;;;;10.07;8.77;;;2.70;1.00;;;;;;5564174;25;20230;-39
2024/04/22 03:15:35;;;;;;;10.60;9.03;;;2.70;1.00;;;;;;5564405;25;20210;-39
2024/04/22 03:18:01;;;;;;;14.97;9.40;;;2.70;1.00;;;;;;5564821;25;20522;-39
2024/04/22 03:20:26;;;;;;;10.00;9.00;;;2.70;1.00;;;;;;5565196;25;20455;-40
2024/04/22 03:22:52;;;;;;;10.27;9.10;;;2.70;1.00;;;;;;5565024;25;20470;-40
2024/04/22 03:25:17;;;;;;;11.70;10.50;;;2.90;1.00;;;;;;5565456;25;20222;-35
2024/04/22 03:27:43;;;;;;;10.53;9.43;;;3.00;1.00;;;;;;5565342;25;20609;-36
2024/04/22 03:30:09;;;;;;;10.50;9.40;;;3.00;1.00;;;;;;5564385;25;20214;-37
2024/04/22 03:32:35;;;;;;;12.13;10.17;;;2.90;1.00;;;;;;5565529;25;20550;-36
2024/04/22 03:35:00;;;;;;;9.70;8.80;;;2.90;1.00;;;;;;5564900;25;20926;-36
2024/04/22 03:37:26;;;;;;;9.50;8.60;;;2.90;1.00;;;;;;5563972;25;20230;-36
2024/04/22 03:39:52;;;;;;;11.27;9.97;;;2.80;1.00;;;;;;5564011;25;20310;-35
2024/04/22 03:42:17;;;;;;;13.53;12.10;;;2.80;1.00;;;;;;5560442;25;20270;-37
2024/04/22 03:44:43;;;;;;;11.73;10.67;;;2.70;1.00;;;;;;5562171;25;20286;-36
2024/04/22 03:50:06;;;;;;;11.13;10.03;;;2.60;1.00;;;;;;5505157;25;20286;-36
2024/04/22 03:52:32;;;;;;;13.50;11.37;;;2.60;1.00;;;;;;5565920;25;20454;-37
2024/04/22 03:54:57;;;;;;;22.03;20.03;;;2.50;1.00;;;;;;5566349;25;20253;-35
2024/04/22 03:57:23;;;;;;;13.20;12.10;;;2.40;1.00;;;;;;5565836;25;20499;-36
2024/04/22 03:59:49;;;;;;;11.67;10.67;;;2.40;1.00;;;;;;5566996;25;20226;-36
2024/04/22 04:02:15;;;;;;;12.90;11.70;;;2.30;1.00;;;;;;5566705;25;20227;-37
2024/04/22 04:04:41;;;;;;;10.53;9.43;;;2.30;1.00;;;;;;5567904;25;20474;-36
2024/04/22 04:07:06;;;;;;;9.70;8.70;;;2.40;1.00;;;;;;5568075;25;20218;-36
2024/04/22 04:09:32;;;;;;;10.20;9.20;;;2.30;1.00;;;;;;5568610;25;20206;-36
2024/04/22 04:11:57;;;;;;;10.60;9.10;;;2.30;1.00;;;;;;5567708;25;20273;-36
2024/04/22 04:14:23;;;;;;;10.27;7.53;;;2.30;1.00;;;;;;5534798;25;20273;-36
2024/04/22 04:16:49;;;;;;;9.40;8.20;;;2.30;1.00;;;;;;5532127;25;20632;-37
2024/04/22 04:19:14;;;;;;;10.10;9.10;;;2.30;1.00;;;;;;5568177;25;20330;-34
2024/04/22 04:21:40;;;;;;;11.57;9.40;;;2.30;1.00;;;;;;5565855;25;20446;-35
2024/04/22 04:24:05;;;;;;;10.37;9.37;;;2.30;1.00;;;;;;5562245;25;20222;-36
2024/04/22 04:26:31;;;;;;;8.90;8.10;;;2.30;1.00;;;;;;5497768;25;20655;-36
2024/04/22 04:28:57;;;;;;;10.47;9.43;;;2.30;1.00;;;;;;5561720;25;20219;-37
2024/04/22 04:31:22;;;;;;;10.67;9.67;;;2.30;1.00;;;;;;5560522;25;20568;-37
2024/04/22 04:33:51;;;;;;;9.80;8.67;;;2.30;1.00;;;;;;5562451;25;20206;-37
2024/04/22 04:36:17;;;;;;;10.00;8.97;;;2.30;1.00;;;;;;5563894;25;20270;-36
2024/04/22 04:38:43;;;;;;;9.70;8.50;;;2.30;1.00;;;;;;5565583;25;20462;-38
2024/04/22 04:41:08;;;;;;;10.67;9.03;;;2.20;1.00;;;;;;5564071;25;20493;-37
2024/04/22 04:43:34;;;;;;;9.33;8.43;;;2.20;1.00;;;;;;5564034;25;20226;-37
2024/04/22 04:46:00;;;;;;;10.03;9.03;;;2.10;1.00;;;;;;5564893;25;20268;-36
2024/04/22 04:48:26;;;;;;;9.40;8.40;;;2.10;1.00;;;;;;5563229;25;20207;-35
2024/04/22 04:50:51;;;;;;;9.43;8.43;;;2.00;1.00;;;;;;5561773;25;20510;-37
2024/04/22 04:53:18;;;;;;;9.10;8.20;;;2.00;1.00;;;;;;5561032;25;20230;-35
2024/04/22 04:55:47;;;;;;;12.13;10.80;;;2.00;1.00;;;;;;5557354;25;20331;-35
2024/04/22 04:58:13;;;;;;;10.60;9.50;;;2.00;1.00;;;;;;5556658;25;20451;-36
2024/04/22 05:00:42;;;;;;;10.00;9.00;;;2.00;1.00;;;;;;5557569;25;20958;-37
2024/04/22 05:03:08;;;;;;;9.03;8.23;;;2.00;1.00;;;;;;5559502;25;20437;-36
2024/04/22 05:05:33;;;;;;;8.97;7.87;;;2.00;1.00;;;;;;5525839;25;20643;-37
2024/04/22 05:07:59;;;;;;;9.37;8.47;;;2.00;1.00;;;;;;5555778;25;20592;-35
2024/04/22 05:10:25;;;;;;;10.20;8.63;;;2.00;1.00;;;;;;5524177;25;20369;-35
2024/04/22 05:12:50;;;;;;;9.77;8.57;;;2.00;1.00;;;;;;5555921;25;20901;-43
2024/04/22 05:15:16;;;;;;;11.43;8.63;;;2.00;1.00;;;;;;5557490;25;20206;-43
2024/04/22 05:17:42;;;;;;;12.90;9.10;;;2.10;1.00;;;;;;5556454;25;20285;-43
2024/04/22 05:20:08;;;;;;;9.90;8.50;;;2.10;1.00;;;;;;5556705;25;20653;-44
2024/04/22 05:22:34;;;;;;;10.20;7.20;;;2.10;1.00;;;;;;5558116;25;20226;-44
2024/04/22 05:25:00;;;;;;;11.13;8.27;;;2.10;1.00;;;;;;5557744;25;20956;-44
2024/04/22 05:27:25;;;;;;;15.23;7.90;;;2.10;1.00;;;;;;5557074;25;20314;-44
2024/04/22 05:29:51;;;;;;;13.80;8.03;;;2.10;1.00;;;;;;5555538;25;20235;-43
2024/04/22 05:32:17;;;;;;;10.13;7.17;;;2.10;1.00;;;;;;5557787;25;20231;-43
2024/04/22 05:37:27;;;;;;;8.77;6.37;;;2.10;1.00;;;;;;5556660;25;20543;-44
2024/04/22 05:39:53;;;;;;;6.00;5.40;;;2.10;1.00;;;;;;5556737;25;20447;-44
2024/04/22 05:42:18;;;;;;;8.23;6.27;;;2.10;1.00;;;;;;5556470;25;20211;-44
2024/04/22 05:44:44;;;;;;;6.57;5.97;;;2.10;1.00;;;;;;5559995;25;20218;-44
2024/04/22 05:47:09;;;;;;;9.60;6.13;;;2.20;1.00;;;;;;5561174;25;20222;-44
2024/04/22 05:49:36;;;;;;;7.97;5.70;;;2.20;1.00;;;;;;5558220;25;20238;-44
2024/04/22 05:52:01;;;;;;;7.37;6.50;;;2.30;99.90;;;;;;5558839;25;20234;-44
2024/04/22 05:54:27;;;;;;;10.33;6.00;;;2.30;1.00;;;;;;5557536;25;20496;-44
2024/04/22 05:56:52;;;;;;;7.60;6.03;;;2.40;1.00;;;;;;5557419;25;20462;-44
2024/04/22 05:59:18;;;;;;;9.43;6.80;;;2.50;99.90;;;;;;5558005;25;20390;-44
2024/04/22 06:01:44;;;;;;;6.60;5.63;;;2.50;99.90;;;;;;5556401;25;20227;-44
2024/04/22 06:04:10;;;;;;;8.33;5.93;;;2.70;99.90;;;;;;5561031;25;20369;-44
2024/04/22 06:06:37;;;;;;;8.87;5.40;;;2.70;99.90;;;;;;5560105;25;20230;-44
2024/04/22 06:09:03;;;;;;;6.40;5.30;;;2.90;99.90;;;;;;5559214;25;20598;-44
2024/04/22 06:11:30;;;;;;;6.97;6.00;;;3.00;99.90;;;;;;5557511;25;20713;-44
2024/04/22 06:13:56;;;;;;;7.00;6.07;;;3.10;99.90;;;;;;5556318;25;20466;-43
2024/04/22 06:16:22;;;;;;;6.50;5.30;;;3.00;99.90;;;;;;5559013;25;20841;-44
2024/04/22 06:18:47;;;;;;;8.47;5.80;;;3.00;99.90;;;;;;5560480;25;20454;-44
2024/04/22 06:21:13;;;;;;;6.30;5.50;;;3.00;99.90;;;;;;5527818;25;20223;-44
2024/04/22 06:23:39;;;;;;;6.67;5.43;;;3.00;99.90;;;;;;5557868;25;20222;-44
2024/04/22 06:26:05;;;;;;;5.80;5.00;;;3.10;99.90;;;;;;5557629;25;20760;-44
2024/04/22 06:28:32;;;;;;;6.10;4.87;;;3.10;99.90;;;;;;5558875;25;20306;-44
2024/04/22 06:30:58;;;;;;;7.00;5.07;;;3.20;99.90;;;;;;5561386;25;20638;-44
2024/04/22 06:33:25;;;;;;;8.77;5.40;;;3.30;99.90;;;;;;5562214;25;20447;-44
2024/04/22 06:35:51;;;;;;;6.63;5.70;;;3.50;99.90;;;;;;5559891;25;20498;-44
2024/04/22 06:38:17;;;;;;;8.60;6.27;;;3.60;99.90;;;;;;5559808;25;20444;-44
2024/04/22 06:40:42;;;;;;;6.20;5.60;;;3.70;99.90;;;;;;5527509;25;20234;-44
2024/04/22 06:43:10;;;;;;;5.97;5.37;;;3.70;57.80;;;;;;5561446;25;20227;-44
2024/04/22 06:45:38;;;;;;;5.67;4.63;;;3.70;13.50;;;;;;5559277;25;20257;-43
2024/04/22 06:48:04;;;;;;;6.40;5.13;;;3.80;27.00;;;;;;5561191;25;20797;-44
2024/04/22 06:50:30;;;;;;;7.37;6.30;;;3.90;19.90;;;;;;5559080;25;20853;-42
2024/04/22 06:52:56;;;;;;;6.03;5.40;;;3.90;1.00;;;;;;5525228;25;20501;-44
2024/04/22 06:55:21;;;;;;;6.00;5.40;;;4.00;1.00;;;;;;5557692;25;20481;-43
2024/04/22 06:57:47;;;;;;;7.67;5.63;;;4.00;1.00;;;;;;5556783;25;20214;-44
2024/04/22 07:00:13;;;;;;;6.07;4.60;;;4.10;1.00;;;;;;5555430;25;20202;-44
2024/04/22 07:02:38;;;;;;;5.93;5.13;;;4.10;1.00;;;;;;5557166;25;20230;-44
2024/04/22 07:05:04;;;;;;;6.30;5.07;;;4.10;1.00;;;;;;5559164;25;20443;-44
2024/04/22 07:07:31;;;;;;;4.73;4.23;;;4.10;1.00;;;;;;5560661;25;20227;-44
2024/04/22 07:09:57;;;;;;;7.57;6.33;;;4.00;1.00;;;;;;5559994;25;20214;-44
2024/04/22 07:12:23;;;;;;;8.47;5.93;;;4.10;1.00;;;;;;5561829;25;20921;-44
2024/04/22 07:14:48;;;;;;;7.20;5.90;;;4.00;1.00;;;;;;5561043;25;20641;-44
2024/04/22 07:17:14;;;;;;;7.10;5.50;;;4.20;1.00;;;;;;5561130;25;20633;-44
2024/04/22 07:19:40;;;;;;;6.27;5.27;;;4.30;1.00;;;;;;5561030;25;20342;-44
2024/04/22 07:22:06;;;;;;;5.30;4.80;;;4.20;1.00;;;;;;5562169;25;20222;-44
2024/04/22 07:24:32;;;;;;;7.30;6.10;;;4.30;99.90;;;;;;5563622;25;20618;-44
2024/04/22 07:26:58;;;;;;;5.97;5.37;;;4.30;99.90;;;;;;5565543;25;20451;-44
2024/04/22 07:29:24;;;;;;;5.07;4.50;;;4.30;99.90;;;;;;5564460;25;20265;-44
2024/04/22 07:31:50;;;;;;;6.43;4.90;;;4.30;99.90;;;;;;5566224;25;20501;-44
2024/04/22 07:34:16;;;;;;;6.10;4.60;;;4.30;99.90;;;;;;5567122;25;20447;-44
2024/04/22 07:36:55;;;;;;;5.17;4.20;;;4.40;1.00;;;;;;5565824;25;20491;-43
2024/04/22 07:39:24;;;;;;;5.17;4.67;;;4.40;98.70;;;;;;5531543;25;20485;-44
2024/04/22 07:41:50;;;;;;;4.70;4.17;;;4.60;24.10;;;;;;5564892;25;20737;-44
2024/04/22 07:44:15;;;;;;;5.90;5.30;;;4.70;1.00;;;;;;5563521;25;20443;-48
2024/04/22 07:46:41;;;;;;;6.00;4.50;;;6.10;1.00;;;;;;5562300;25;20238;-48
2024/04/22 07:49:08;;;;;;;8.97;4.80;;;6.60;1.00;;;;;;5565284;25;20602;-46
2024/04/22 07:51:37;;;;;;;9.17;5.33;;;7.30;1.00;;;;;;5565961;25;20439;-46
2024/04/22 07:54:04;;;;;;;7.20;4.90;;;7.40;99.90;;;;;;5561884;25;20790;-46
2024/04/22 07:56:29;;;;;;;9.57;6.63;;;7.40;99.90;;;;;;5561978;25;20853;-46
2024/04/22 07:58:55;;;;;;;4.83;4.33;;;7.30;1.00;;;;;;5560469;25;20507;-46
2024/04/22 08:01:21;;;;;;;5.93;4.57;;;7.40;22.60;;;;;;5561985;25;20556;-46
2024/04/22 08:03:47;;;;;;;4.97;4.40;;;7.40;1.00;;;;;;5562163;25;20643;-46
2024/04/22 08:06:20;;;;;;;5.27;4.77;;;7.50;99.90;;;;;;5562889;25;20857;-46
2024/04/22 08:08:46;;;;;;;6.60;5.30;;;7.30;55.20;;;;;;5563819;25;20450;-46
2024/04/22 08:11:12;;;;;;;5.65;4.90;;;7.30;99.90;;;;;;5562789;25;20382;-46
2024/04/22 08:13:37;;;;;;;4.97;4.17;;;7.30;42.20;;;;;;5564490;25;20238;-46
2024/04/22 08:16:03;;;;;;;4.27;3.57;;;7.20;1.00;;;;;;5564712;25;20443;-46
2024/04/22 08:18:30;;;;;;;6.27;5.60;;;7.30;1.00;;;;;;5563610;25;20230;-46
2024/04/22 08:20:55;;;;;;;7.43;5.60;;;7.20;1.00;;;;;;5560878;25;20462;-46
2024/04/22 08:23:23;;;;;;;5.37;4.70;;;7.30;1.00;;;;;;5559635;25;20514;-46
2024/04/22 08:25:49;;;;;;;5.50;4.40;;;7.30;1.00;;;;;;5558737;25;20226;-46
2024/04/22 08:28:14;;;;;;;5.53;4.63;;;7.30;1.00;;;;;;5560194;25;20495;-46
2024/04/22 08:30:40;;;;;;;4.03;3.63;;;7.60;1.00;;;;;;5559898;25;20269;-46
2024/04/22 08:33:06;;;;;;;4.77;4.03;;;7.80;99.90;;;;;;5561936;25;20226;-46
2024/04/22 08:35:31;;;;;;;4.27;3.77;;;8.00;99.90;;;;;;5526806;25;20834;-46
2024/04/22 08:37:57;;;;;;;4.30;3.57;;;8.00;99.90;;;;;;5530943;25;20231;-46
2024/04/22 08:40:23;;;;;;;3.60;3.13;;;8.10;99.90;;;;;;5563864;25;20270;-46
2024/04/22 08:42:48;;;;;;;4.20;3.50;;;8.40;99.90;;;;;;5565618;25;20318;-47
2024/04/22 08:45:14;;;;;;;4.00;3.30;;;8.80;99.90;;;;;;5566380;25;20326;-46
2024/04/22 08:47:40;;;;;;;7.93;3.63;;;8.90;99.90;;;;;;5566532;25;20281;-46
2024/04/22 08:50:06;;;;;;;3.70;3.40;;;9.00;98.90;;;;;;5566787;25;20812;-47
2024/04/22 08:52:32;;;;;;;3.40;2.87;;;9.20;59.00;;;;;;5563072;25;20227;-47
2024/04/22 08:54:57;;;;;;;5.97;4.73;;;9.50;56.40;;;;;;5531391;25;20737;-47
2024/04/22 08:57:23;;;;;;;4.90;3.30;;;9.60;2.20;;;;;;5562834;25;20654;-48
2024/04/22 08:59:48;;;;;;;2.93;2.60;;;9.80;1.00;;;;;;5562487;25;20226;-47
2024/04/22 09:02:15;;;;;;;2.90;2.10;;;9.80;1.00;;;;;;5546092;25;20230;-47
2024/04/22 09:04:41;;;;;;;2.87;2.10;;;10.10;1.00;;;;;;5558361;25;20695;-47
2024/04/22 09:07:14;;;;;;;5.47;2.40;;;9.90;1.00;;;;;;5523892;25;20433;-47
2024/04/22 09:09:44;;;;;;;3.50;2.50;;;9.70;1.00;;;;;;5492519;26;20456;-47
2024/04/22 09:12:17;;;;;;;3.47;2.90;;;9.50;1.00;;;;;;5529413;25;20556;-47
2024/04/22 09:14:43;;;;;;;3.47;2.47;;;9.30;1.00;;;;;;5525236;25;20894;-47
2024/04/22 09:17:15;;;;;;;3.70;3.03;;;9.10;1.00;;;;;;5558587;25;21263;-47
2024/04/22 09:19:44;;;;;;;3.17;2.87;;;9.20;1.00;;;;;;5498692;25;20467;-47
2024/04/22 09:22:10;;;;;;;3.90;3.03;;;9.10;1.00;;;;;;5501023;25;20451;-47
2024/04/22 09:24:36;;;;;;;3.53;3.00;;;9.30;1.00;;;;;;5563360;25;20864;-47
2024/04/22 09:27:03;;;;;;;3.67;2.90;;;9.50;1.00;;;;;;5566603;25;20218;-46
2024/04/22 09:29:29;;;;;;;3.63;3.00;;;9.70;1.00;;;;;;5564025;25;20222;-47
2024/04/22 09:31:58;;;;;;;3.87;3.20;;;10.00;1.00;;;;;;5528310;25;20540;-47
2024/04/22 09:34:25;;;;;;;3.90;3.03;;;10.20;1.00;;;;;;5527941;25;20499;-47
2024/04/22 09:36:52;;;;;;;4.63;3.10;;;10.50;1.00;;;;;;5528523;25;20431;-47
2024/04/22 09:39:17;;;;;;;3.20;2.90;;;10.80;1.00;;;;;;5529712;25;20439;-47
2024/04/22 09:41:44;;;;;;;3.73;3.00;;;11.10;1.00;;;;;;5565900;25;20527;-47
2024/04/22 09:44:11;;;;;;;3.30;3.00;;;11.30;1.00;;;;;;5562752;25;20218;-47
2024/04/22 09:46:37;;;;;;;3.53;3.23;;;11.20;1.00;;;;;;5528602;25;20564;-47
2024/04/22 09:49:04;;;;;;;3.43;2.90;;;11.40;1.00;;;;;;5526494;25;20443;-46
2024/04/22 09:51:30;;;;;;;3.70;2.93;;;11.70;1.00;;;;;;5527945;25;20526;-47
2024/04/22 09:53:58;;;;;;;3.70;3.23;;;12.30;1.00;;;;;;5529085;25;20443;-47
2024/04/22 09:56:27;;;;;;;2.77;2.50;;;12.60;1.00;;;;;;5561547;25;20451;-47
2024/04/22 09:58:53;;;;;;;4.43;3.30;;;13.20;1.00;;;;;;5560818;25;20570;-47
2024/04/22 10:01:19;;;;;;;3.13;2.90;;;13.90;1.00;;;;;;5559482;25;20485;-47
2024/04/22 10:03:46;;;;;;;4.50;3.30;;;13.90;1.00;;;;;;5562289;25;20443;-47
2024/04/22 10:06:15;;;;;;;3.40;3.10;;;13.90;1.00;;;;;;5562524;25;20858;-47
2024/04/22 10:08:40;;;;;;;3.87;3.40;;;13.70;1.00;;;;;;5528101;25;20503;-47
2024/04/22 10:11:07;;;;;;;4.07;3.50;;;13.40;1.00;;;;;;5562703;25;20518;-47
2024/04/22 10:13:33;;;;;;;4.23;2.90;;;13.30;1.00;;;;;;5562541;25;20680;-47
2024/04/22 10:15:59;;;;;;;4.47;2.87;;;14.60;1.00;;;;;;5528491;25;20487;-47
2024/04/22 10:18:24;;;;;;;3.70;2.73;;;15.80;1.00;;;;;;5562388;25;20234;-47
2024/04/22 10:20:51;;;;;;;5.17;3.27;;;15.90;1.00;;;;;;5563292;25;20227;-47
2024/04/22 10:23:17;;;;;;;3.23;3.00;;;15.60;1.00;;;;;;5562826;25;20318;-47
2024/04/22 10:25:43;;;;;;;5.03;3.50;;;15.30;1.00;;;;;;5559345;25;20451;-47
2024/04/22 10:28:11;;;;;;;3.97;3.57;;;14.90;1.00;;;;;;5528835;25;20533;-47
2024/04/22 10:30:37;;;;;;;3.60;3.07;;;14.20;1.00;;;;;;5562647;25;20487;-47
2024/04/22 10:33:04;;;;;;;3.97;2.97;;;13.90;1.00;;;;;;5559897;25;20514;-47
2024/04/22 10:35:30;;;;;;;3.90;3.20;;;13.50;1.00;;;;;;5561459;25;20451;-47
2024/04/22 10:37:56;;;;;;;3.83;3.40;;;13.20;1.00;;;;;;5563127;25;20500;-47
2024/04/22 10:40:22;;;;;;;5.27;3.30;;;12.80;1.00;;;;;;5564139;25;20451;-47
2024/04/22 10:42:48;;;;;;;3.50;3.20;;;12.50;1.00;;;;;;5561271;25;20543;-47
2024/04/22 10:45:14;;;;;;;3.70;3.37;;;12.50;1.00;;;;;;5530330;25;20514;-47
2024/04/22 10:47:40;;;;;;;3.23;2.63;;;12.80;1.00;;;;;;5561593;25;20269;-47
2024/04/22 10:50:26;;;;;;;3.90;2.90;;;14.00;1.00;;;;;;5563403;25;20619;-47
2024/04/22 10:52:52;;;;;;;3.90;2.83;;;15.30;1.00;;;;;;5564869;25;20227;-47
2024/04/22 10:55:18;;;;;;;3.43;3.13;;;16.70;1.00;;;;;;5562391;25;20492;-47
2024/04/22 10:57:45;;;;;;;3.63;3.27;;;17.60;1.00;;;;;;5561211;25;20436;-47
2024/04/22 11:00:12;;;;;;;3.20;2.90;;;18.20;1.00;;;;;;5561051;25;20207;-47
2024/04/22 11:02:39;;;;;;;3.10;2.80;;;18.80;1.00;;;;;;5561398;25;20522;-47
2024/04/22 11:05:04;;;;;;;3.10;2.80;;;18.40;1.00;;;;;;5562593;25;20514;-47
2024/04/22 11:07:30;;;;;;;3.00;2.80;;;19.10;1.00;;;;;;5560280;25;20769;-47
2024/04/22 11:09:59;;;;;;;3.00;2.73;;;20.40;1.00;;;;;;5558649;25;20218;-47
2024/04/22 11:12:26;;;;;;;7.93;7.13;;;21.90;1.00;;;;;;5528269;25;20245;-47
2024/04/22 11:14:52;;;;;;;3.47;2.70;;;22.80;1.00;;;;;;5530114;25;20513;-47
2024/04/22 11:17:21;;;;;;;2.80;2.50;;;23.20;1.00;;;;;;5563049;25;20471;-48
2024/04/22 11:19:47;;;;;;;2.93;2.60;;;23.90;1.00;;;;;;5563241;25;20463;-48
2024/04/22 11:22:13;;;;;;;3.00;2.80;;;24.70;1.00;;;;;;5536331;25;20453;-48
2024/04/22 11:24:38;;;;;;;3.17;2.97;;;25.20;1.00;;;;;;5552148;25;20215;-48
2024/04/22 11:27:04;;;;;;;3.07;2.83;;;26.10;1.00;;;;;;5558202;25;20600;-48
2024/04/22 11:29:30;;;;;;;2.87;2.67;;;26.80;1.00;;;;;;5555878;25;20330;-47
2024/04/22 11:31:56;;;;;;;3.00;2.70;;;25.10;1.00;;;;;;5526569;25;20467;-47
2024/04/22 11:34:21;;;;;;;3.17;2.87;;;22.20;1.00;;;;;;5559176;25;20226;-47
2024/04/22 11:36:55;;;;;;;2.60;2.40;;;20.10;1.00;;;;;;5557986;25;20214;-47
2024/04/22 11:39:21;;;;;;;2.70;2.50;;;19.10;1.00;;;;;;5499327;25;20912;-47
2024/04/22 11:41:47;;;;;;;2.70;2.50;;;19.90;1.00;;;;;;5520754;25;20508;-48
2024/04/22 11:44:13;;;;;;;3.40;2.87;;;21.20;1.00;;;;;;5524615;25;20493;-47
2024/04/22 11:46:41;;;;;;;3.20;2.90;;;22.10;1.00;;;;;;5524481;25;20535;-47
2024/04/22 11:49:07;;;;;;;2.43;2.23;;;20.50;1.00;;;;;;5562305;25;20266;-47
2024/04/22 11:51:33;;;;;;;2.60;2.40;;;19.20;1.00;;;;;;5545628;25;20436;-47
2024/04/22 11:53:58;;;;;;;4.80;2.53;;;18.40;1.00;;;;;;5524393;25;20223;-47
2024/04/22 11:56:30;;;;;;;2.53;2.33;;;17.70;1.00;;;;;;5493177;25;20224;-48
2024/04/22 11:58:56;;;;;;;3.10;2.30;;;17.30;1.00;;;;;;5558742;25;20269;-47
2024/04/22 12:01:22;;;;;;;2.53;2.23;;;17.10;1.00;;;;;;5563908;25;20447;-47
2024/04/22 12:03:48;;;;;;;4.37;2.80;;;18.00;1.00;;;;;;5529865;25;20499;-46
2024/04/22 12:06:14;;;;;;;2.13;1.93;;;20.10;1.00;;;;;;5559798;25;20322;-48
2024/04/22 12:08:40;;;;;;;2.47;2.27;;;21.20;1.00;;;;;;5555302;25;20874;-47
2024/04/22 12:11:05;;;;;;;2.53;2.33;;;21.70;1.00;;;;;;5555613;25;20230;-47
2024/04/22 12:13:31;;;;;;;2.77;2.57;;;20.90;1.00;;;;;;5560744;25;20239;-47
2024/04/22 12:15:57;;;;;;;2.63;2.40;;;20.60;1.00;;;;;;5560002;25;20241;-47
2024/04/22 12:18:22;;;;;;;3.07;2.77;;;20.70;1.00;;;;;;5526142;25;20251;-47
2024/04/22 12:20:48;;;;;;;3.07;2.77;;;19.40;1.00;;;;;;5492745;25;20262;-47
2024/04/22 12:23:13;;;;;;;3.30;2.50;;;18.20;1.00;;;;;;5526334;25;20266;-47
2024/04/22 12:25:39;;;;;;;3.20;2.90;;;17.10;1.00;;;;;;5526427;25;20224;-47
2024/04/22 12:28:06;;;;;;;2.67;2.20;;;16.20;1.00;;;;;;5532015;25;20664;-47
2024/04/22 12:30:31;;;;;;;3.87;2.63;;;15.80;1.00;;;;;;5492466;25;20215;-47
2024/04/22 12:32:57;;;;;;;3.10;2.37;;;17.20;1.00;;;;;;5524743;25;20536;-47
2024/04/22 12:35:22;;;;;;;3.00;2.10;;;18.70;1.00;;;;;;5527628;25;20282;-47
2024/04/22 12:37:48;;;;;;;3.30;2.53;;;19.80;1.00;;;;;;5529979;25;20312;-47
2024/04/22 12:40:14;;;;;;;2.50;2.30;;;20.20;1.00;;;;;;5529488;25;20236;-47
2024/04/22 12:42:39;;;;;;;2.60;2.40;;;19.60;1.00;;;;;;5530078;25;20223;-47
2024/04/22 12:45:05;;;;;;;2.80;2.60;;;18.60;1.00;;;;;;5524560;26;20220;-47
2024/04/22 12:52:59;;;;;;;3.70;2.50;;;17.20;1.00;;;;;;5500252;25;21307;-47
2024/04/22 12:55:25;;;;;;;2.60;2.40;;;16.30;1.00;;;;;;5526126;25;20464;-47
2024/04/22 12:57:50;;;;;;;2.67;2.47;;;15.80;1.00;;;;;;5523663;25;20657;-47
2024/04/22 13:00:16;;;;;;;3.27;2.47;;;15.00;1.00;;;;;;5521071;25;20211;-47
2024/04/22 13:02:42;;;;;;;4.17;3.10;;;14.40;1.00;;;;;;5528450;25;20290;-47
2024/04/22 13:05:08;;;;;;;2.17;1.97;;;13.90;1.00;;;;;;5561221;25;20307;-47
2024/04/22 13:07:34;;;;;;;2.40;2.10;;;13.80;1.00;;;;;;5542012;25;20476;-47
2024/04/22 13:09:59;;;;;;;2.30;2.10;;;13.80;1.00;;;;;;5521462;25;20220;-48